sensor_id;sensor_type;location;lat;lon;timestamp;pressure;altitude;pressure_sealevel;temperature;humidity
48041;BME280;33815;48.386;11.738;2023-05-17T00:01:50;96614.75;;;7.19;100.00
48041;BME280;33815;48.386;11.738;2023-05-17T00:04:16;96627.53;;;7.11;100.00
48041;BME280;33815;48.386;11.738;2023-05-17T00:06:41;96621.53;;;7.10;100.00
48041;BME280;33815;48.386;11.738;2023-05-17T00:09:07;96623.41;;;7.08;100.00
48041;BME280;33815;48.386;11.738;2023-05-17T00:11:32;96628.59;;;7.08;100.00
48041;BME280;33815;48.386;11.738;2023-05-17T00:13:57;96627.84;;;7.17;100.00
48041;BME280;33815;48.386;11.738;2023-05-17T00:16:22;96611.50;;;6.96;100.00
48041;BME280;33815;48.386;11.738;2023-05-17T00:18:48;96631.91;;;7.10;100.00
48041;BME280;33815;48.386;11.738;2023-05-17T00:21:13;96617.38;;;6.98;100.00
48041;BME280;33815;48.386;11.738;2023-05-17T00:23:38;96634.38;;;7.12;100.00
48041;BME280;33815;48.386;11.738;2023-05-17T00:26:03;96625.59;;;7.03;100.00
48041;BME280;33815;48.386;11.738;2023-05-17T00:28:29;96617.94;;;7.01;100.00
48041;BME280;33815;48.386;11.738;2023-05-17T00:30:54;96634.81;;;6.96;100.00
48041;BME280;33815;48.386;11.738;2023-05-17T00:33:19;96647.78;;;6.96;100.00
48041;BME280;33815;48.386;11.738;2023-05-17T00:35:45;96641.31;;;6.90;100.00
48041;BME280;33815;48.386;11.738;2023-05-17T00:38:10;96634.75;;;6.86;100.00
48041;BME280;33815;48.386;11.738;2023-05-17T00:40:35;96634.69;;;6.76;100.00
48041;BME280;33815;48.386;11.738;2023-05-17T00:43:00;96631.38;;;6.74;100.00
48041;BME280;33815;48.386;11.738;2023-05-17T00:45:26;96624.94;;;6.90;100.00
48041;BME280;33815;48.386;11.738;2023-05-17T00:47:51;96645.06;;;6.97;100.00
48041;BME280;33815;48.386;11.738;2023-05-17T00:50:16;96639.72;;;6.78;100.00
48041;BME280;33815;48.386;11.738;2023-05-17T00:52:42;96648.78;;;6.83;100.00
48041;BME280;33815;48.386;11.738;2023-05-17T00:55:07;96655.97;;;6.80;100.00
48041;BME280;33815;48.386;11.738;2023-05-17T00:57:33;96649.03;;;6.80;100.00
48041;BME280;33815;48.386;11.738;2023-05-17T01:00:00;96658.28;;;6.83;100.00
48041;BME280;33815;48.386;11.738;2023-05-17T01:02:25;96661.78;;;6.72;100.00
48041;BME280;33815;48.386;11.738;2023-05-17T01:04:51;96645.25;;;6.73;100.00
48041;BME280;33815;48.386;11.738;2023-05-17T01:07:16;96659.31;;;6.71;100.00
48041;BME280;33815;48.386;11.738;2023-05-17T01:09:42;96651.97;;;6.76;100.00
48041;BME280;33815;48.386;11.738;2023-05-17T01:12:17;96662.38;;;6.64;100.00
48041;BME280;33815;48.386;11.738;2023-05-17T01:15:08;96655.84;;;6.49;100.00
48041;BME280;33815;48.386;11.738;2023-05-17T01:17:53;96660.16;;;6.60;100.00
48041;BME280;33815;48.386;11.738;2023-05-17T01:20:27;96664.31;;;6.51;100.00
48041;BME280;33815;48.386;11.738;2023-05-17T01:23:58;96669.13;;;6.56;100.00
48041;BME280;33815;48.386;11.738;2023-05-17T01:26:06;96663.50;;;6.50;100.00
48041;BME280;33815;48.386;11.738;2023-05-17T01:28:32;96667.13;;;6.48;100.00
48041;BME280;33815;48.386;11.738;2023-05-17T01:31:00;96664.53;;;6.48;100.00
48041;BME280;33815;48.386;11.738;2023-05-17T01:33:26;96651.28;;;6.41;100.00
48041;BME280;33815;48.386;11.738;2023-05-17T01:35:51;96668.09;;;6.47;100.00
48041;BME280;33815;48.386;11.738;2023-05-17T01:38:17;96662.09;;;6.46;100.00
48041;BME280;33815;48.386;11.738;2023-05-17T01:40:47;96673.59;;;6.54;100.00
48041;BME280;33815;48.386;11.738;2023-05-17T01:43:40;96670.09;;;6.43;100.00
48041;BME280;33815;48.386;11.738;2023-05-17T01:46:32;96673.28;;;6.47;100.00
48041;BME280;33815;48.386;11.738;2023-05-17T01:49:15;96675.03;;;6.46;100.00
48041;BME280;33815;48.386;11.738;2023-05-17T01:51:47;96678.81;;;6.42;100.00
48041;BME280;33815;48.386;11.738;2023-05-17T01:54:14;96684.09;;;6.41;100.00
48041;BME280;33815;48.386;11.738;2023-05-17T01:56:47;96679.06;;;6.39;100.00
48041;BME280;33815;48.386;11.738;2023-05-17T01:59:19;96667.88;;;6.39;100.00
48041;BME280;33815;48.386;11.738;2023-05-17T02:01:48;96673.63;;;6.42;100.00
48041;BME280;33815;48.386;11.738;2023-05-17T02:04:13;96669.88;;;6.35;100.00
48041;BME280;33815;48.386;11.738;2023-05-17T02:06:38;96675.53;;;6.40;100.00
48041;BME280;33815;48.386;11.738;2023-05-17T02:09:04;96687.94;;;6.58;100.00
48041;BME280;33815;48.386;11.738;2023-05-17T02:11:29;96668.09;;;6.47;100.00
48041;BME280;33815;48.386;11.738;2023-05-17T02:13:54;96683.38;;;6.50;100.00
48041;BME280;33815;48.386;11.738;2023-05-17T02:16:20;96683.38;;;6.50;100.00
48041;BME280;33815;48.386;11.738;2023-05-17T02:18:45;96674.09;;;6.47;100.00
48041;BME280;33815;48.386;11.738;2023-05-17T02:21:10;96675.53;;;6.40;100.00
48041;BME280;33815;48.386;11.738;2023-05-17T02:23:37;96682.66;;;6.48;100.00
48041;BME280;33815;48.386;11.738;2023-05-17T02:26:02;96687.63;;;6.51;100.00
48041;BME280;33815;48.386;11.738;2023-05-17T02:28:27;96680.00;;;6.49;99.81
48041;BME280;33815;48.386;11.738;2023-05-17T02:30:53;96692.94;;;6.49;100.00
48041;BME280;33815;48.386;11.738;2023-05-17T02:33:18;96691.75;;;6.42;99.97
48041;BME280;33815;48.386;11.738;2023-05-17T02:35:43;96694.22;;;6.44;99.19
48041;BME280;33815;48.386;11.738;2023-05-17T02:38:09;96676.72;;;6.36;99.62
48041;BME280;33815;48.386;11.738;2023-05-17T02:40:34;96697.31;;;6.38;100.00
48041;BME280;33815;48.386;11.738;2023-05-17T02:42:59;96694.75;;;6.26;100.00
48041;BME280;33815;48.386;11.738;2023-05-17T02:45:25;96701.31;;;6.30;100.00
48041;BME280;33815;48.386;11.738;2023-05-17T02:47:50;96691.22;;;6.27;100.00
48041;BME280;33815;48.386;11.738;2023-05-17T02:50:16;96689.69;;;6.13;100.00
48041;BME280;33815;48.386;11.738;2023-05-17T02:52:41;96710.50;;;6.23;100.00
48041;BME280;33815;48.386;11.738;2023-05-17T02:55:06;96705.59;;;6.20;100.00
48041;BME280;33815;48.386;11.738;2023-05-17T02:57:32;96714.53;;;6.16;100.00
48041;BME280;33815;48.386;11.738;2023-05-17T02:59:57;96699.00;;;6.16;100.00
48041;BME280;33815;48.386;11.738;2023-05-17T03:02:22;96707.72;;;6.04;100.00
48041;BME280;33815;48.386;11.738;2023-05-17T03:04:48;96713.25;;;6.10;100.00
48041;BME280;33815;48.386;11.738;2023-05-17T03:07:13;96717.94;;;6.05;100.00
48041;BME280;33815;48.386;11.738;2023-05-17T03:09:38;96724.78;;;6.06;100.00
48041;BME280;33815;48.386;11.738;2023-05-17T03:12:04;96734.75;;;5.99;100.00
48041;BME280;33815;48.386;11.738;2023-05-17T03:14:30;96732.66;;;6.05;100.00
48041;BME280;33815;48.386;11.738;2023-05-17T03:16:55;96735.22;;;5.93;100.00
48041;BME280;33815;48.386;11.738;2023-05-17T03:19:20;96717.06;;;5.82;100.00
48041;BME280;33815;48.386;11.738;2023-05-17T03:21:46;96738.84;;;5.91;100.00
48041;BME280;33815;48.386;11.738;2023-05-17T03:24:11;96728.38;;;5.81;100.00
48041;BME280;33815;48.386;11.738;2023-05-17T03:26:36;96740.00;;;5.75;100.00
48041;BME280;33815;48.386;11.738;2023-05-17T03:29:01;96754.13;;;5.82;100.00
48041;BME280;33815;48.386;11.738;2023-05-17T03:31:27;96743.88;;;5.70;100.00
48041;BME280;33815;48.386;11.738;2023-05-17T03:33:52;96757.78;;;5.91;100.00
48041;BME280;33815;48.386;11.738;2023-05-17T03:36:17;96759.06;;;5.74;100.00
48041;BME280;33815;48.386;11.738;2023-05-17T03:38:43;96744.09;;;5.66;100.00
48041;BME280;33815;48.386;11.738;2023-05-17T03:41:08;96769.94;;;5.66;100.00
48041;BME280;33815;48.386;11.738;2023-05-17T03:43:33;96773.50;;;5.65;100.00
48041;BME280;33815;48.386;11.738;2023-05-17T03:45:59;96763.22;;;5.53;100.00
48041;BME280;33815;48.386;11.738;2023-05-17T03:48:24;96775.47;;;5.62;100.00
48041;BME280;33815;48.386;11.738;2023-05-17T03:50:49;96775.03;;;5.68;100.00
48041;BME280;33815;48.386;11.738;2023-05-17T03:53:15;96771.47;;;5.58;100.00
48041;BME280;33815;48.386;11.738;2023-05-17T03:55:40;96789.84;;;5.66;100.00
48041;BME280;33815;48.386;11.738;2023-05-17T03:58:05;96786.19;;;5.69;100.00
48041;BME280;33815;48.386;11.738;2023-05-17T04:00:31;96796.78;;;5.65;100.00
48041;BME280;33815;48.386;11.738;2023-05-17T04:02:56;96799.81;;;5.71;100.00
48041;BME280;33815;48.386;11.738;2023-05-17T04:05:21;96797.13;;;5.72;100.00
48041;BME280;33815;48.386;11.738;2023-05-17T04:07:47;96793.47;;;5.63;100.00
48041;BME280;33815;48.386;11.738;2023-05-17T04:10:12;96802.06;;;5.64;100.00
48041;BME280;33815;48.386;11.738;2023-05-17T04:12:37;96814.78;;;5.78;100.00
48041;BME280;33815;48.386;11.738;2023-05-17T04:15:03;96817.94;;;5.82;100.00
48041;BME280;33815;48.386;11.738;2023-05-17T04:17:29;96820.22;;;5.87;100.00
48041;BME280;33815;48.386;11.738;2023-05-17T04:19:54;96819.63;;;5.94;100.00
48041;BME280;33815;48.386;11.738;2023-05-17T04:22:20;96822.44;;;5.91;99.77
48041;BME280;33815;48.386;11.738;2023-05-17T04:24:45;96822.19;;;5.94;99.89
48041;BME280;33815;48.386;11.738;2023-05-17T04:27:11;96828.72;;;6.00;99.11
48041;BME280;33815;48.386;11.738;2023-05-17T04:29:36;96818.19;;;5.90;98.94
48041;BME280;33815;48.386;11.738;2023-05-17T04:32:01;96822.09;;;5.96;98.86
48041;BME280;33815;48.386;11.738;2023-05-17T04:34:26;96825.56;;;6.08;98.16
48041;BME280;33815;48.386;11.738;2023-05-17T04:36:52;96831.91;;;6.15;97.75
48041;BME280;33815;48.386;11.738;2023-05-17T04:39:19;96827.09;;;6.10;97.82
48041;BME280;33815;48.386;11.738;2023-05-17T04:41:44;96842.28;;;6.26;97.74
48041;BME280;33815;48.386;11.738;2023-05-17T04:44:10;96838.38;;;6.21;96.52
48041;BME280;33815;48.386;11.738;2023-05-17T04:46:36;96844.25;;;6.23;96.73
48041;BME280;33815;48.386;11.738;2023-05-17T04:49:01;96845.47;;;6.30;97.22
48041;BME280;33815;48.386;11.738;2023-05-17T04:51:28;96829.56;;;6.23;96.08
48041;BME280;33815;48.386;11.738;2023-05-17T04:53:53;96834.16;;;6.31;94.89
48041;BME280;33815;48.386;11.738;2023-05-17T04:56:18;96825.56;;;6.19;96.44
48041;BME280;33815;48.386;11.738;2023-05-17T04:58:44;96844.88;;;6.26;96.65
48041;BME280;33815;48.386;11.738;2023-05-17T05:01:09;96850.66;;;6.30;96.63
48041;BME280;33815;48.386;11.738;2023-05-17T05:03:34;96849.91;;;6.39;95.44
48041;BME280;33815;48.386;11.738;2023-05-17T05:06:00;96847.69;;;6.34;95.56
48041;BME280;33815;48.386;11.738;2023-05-17T05:08:26;96844.16;;;6.36;95.13
48041;BME280;33815;48.386;11.738;2023-05-17T05:10:52;96844.88;;;6.38;95.08
48041;BME280;33815;48.386;11.738;2023-05-17T05:13:17;96844.28;;;6.34;94.93
48041;BME280;33815;48.386;11.738;2023-05-17T05:15:43;96851.34;;;6.32;94.86
48041;BME280;33815;48.386;11.738;2023-05-17T05:18:08;96862.75;;;6.52;97.97
48041;BME280;33815;48.386;11.738;2023-05-17T05:20:34;96854.97;;;6.63;96.73
48041;BME280;33815;48.386;11.738;2023-05-17T05:22:59;96854.50;;;6.81;94.99
48041;BME280;33815;48.386;11.738;2023-05-17T05:25:26;96862.75;;;6.86;94.76
48041;BME280;33815;48.386;11.738;2023-05-17T05:27:51;96874.03;;;6.96;93.65
48041;BME280;33815;48.386;11.738;2023-05-17T05:30:16;96872.75;;;6.91;94.87
48041;BME280;33815;48.386;11.738;2023-05-17T05:32:47;96860.72;;;6.90;93.44
48041;BME280;33815;48.386;11.738;2023-05-17T05:35:13;96868.25;;;6.93;93.70
48041;BME280;33815;48.386;11.738;2023-05-17T05:37:38;96880.13;;;7.07;91.79
48041;BME280;33815;48.386;11.738;2023-05-17T05:40:04;96884.03;;;7.01;92.76
48041;BME280;33815;48.386;11.738;2023-05-17T05:42:29;96883.47;;;6.97;92.34
48041;BME280;33815;48.386;11.738;2023-05-17T05:44:55;96872.28;;;6.85;91.11
48041;BME280;33815;48.386;11.738;2023-05-17T05:47:20;96874.75;;;6.87;89.96
48041;BME280;33815;48.386;11.738;2023-05-17T05:49:45;96890.06;;;6.90;90.07
48041;BME280;33815;48.386;11.738;2023-05-17T05:52:10;96889.59;;;6.74;92.83
48041;BME280;33815;48.386;11.738;2023-05-17T05:54:36;96889.72;;;6.83;90.61
48041;BME280;33815;48.386;11.738;2023-05-17T05:57:01;96885.34;;;6.73;90.82
48041;BME280;33815;48.386;11.738;2023-05-17T05:59:26;96883.25;;;6.66;90.70
48041;BME280;33815;48.386;11.738;2023-05-17T06:01:52;96879.13;;;6.64;90.53
48041;BME280;33815;48.386;11.738;2023-05-17T06:04:17;96872.41;;;6.73;93.42
48041;BME280;33815;48.386;11.738;2023-05-17T06:06:42;96883.69;;;6.72;90.75
48041;BME280;33815;48.386;11.738;2023-05-17T06:09:07;96878.75;;;6.57;90.05
48041;BME280;33815;48.386;11.738;2023-05-17T06:11:36;96880.91;;;6.75;91.64
48041;BME280;33815;48.386;11.738;2023-05-17T06:14:01;96894.66;;;6.86;91.41
48041;BME280;33815;48.386;11.738;2023-05-17T06:16:27;96891.44;;;6.94;91.28
48041;BME280;33815;48.386;11.738;2023-05-17T06:18:52;96898.41;;;6.94;89.32
48041;BME280;33815;48.386;11.738;2023-05-17T06:21:17;96902.28;;;6.99;89.50
48041;BME280;33815;48.386;11.738;2023-05-17T06:23:42;96896.19;;;6.89;89.98
48041;BME280;33815;48.386;11.738;2023-05-17T06:26:08;96911.47;;;7.03;90.29
48041;BME280;33815;48.386;11.738;2023-05-17T06:28:38;96894.97;;;7.16;88.95
48041;BME280;33815;48.386;11.738;2023-05-17T06:31:03;96907.44;;;7.11;88.64
48041;BME280;33815;48.386;11.738;2023-05-17T06:33:28;96901.34;;;7.12;88.95
48041;BME280;33815;48.386;11.738;2023-05-17T06:35:54;96921.22;;;7.23;89.31
48041;BME280;33815;48.386;11.738;2023-05-17T06:38:20;96902.72;;;7.27;89.44
48041;BME280;33815;48.386;11.738;2023-05-17T06:40:45;96910.00;;;7.33;87.31
48041;BME280;33815;48.386;11.738;2023-05-17T06:43:11;96925.78;;;7.42;85.15
48041;BME280;33815;48.386;11.738;2023-05-17T06:45:36;96925.69;;;7.32;86.49
48041;BME280;33815;48.386;11.738;2023-05-17T06:48:01;96943.81;;;7.32;86.47
48041;BME280;33815;48.386;11.738;2023-05-17T06:50:26;96927.94;;;7.25;85.82
48041;BME280;33815;48.386;11.738;2023-05-17T06:52:53;96923.22;;;7.19;86.51
48041;BME280;33815;48.386;11.738;2023-05-17T06:55:18;96943.81;;;7.32;88.96
48041;BME280;33815;48.386;11.738;2023-05-17T06:57:43;96943.94;;;7.42;87.05
48041;BME280;33815;48.386;11.738;2023-05-17T07:00:09;96948.28;;;7.41;87.51
48041;BME280;33815;48.386;11.738;2023-05-17T07:02:35;96936.66;;;7.24;87.22
48041;BME280;33815;48.386;11.738;2023-05-17T07:05:01;96950.75;;;7.43;86.03
48041;BME280;33815;48.386;11.738;2023-05-17T07:07:26;96934.84;;;7.36;88.24
48041;BME280;33815;48.386;11.738;2023-05-17T07:09:51;96957.13;;;7.38;85.57
48041;BME280;33815;48.386;11.738;2023-05-17T07:12:16;96964.66;;;7.42;86.32
48041;BME280;33815;48.386;11.738;2023-05-17T07:14:42;96954.28;;;7.53;87.03
48041;BME280;33815;48.386;11.738;2023-05-17T07:17:09;96970.22;;;7.48;86.97
48041;BME280;33815;48.386;11.738;2023-05-17T07:19:35;96953.72;;;7.49;88.16
48041;BME280;33815;48.386;11.738;2023-05-17T07:22:00;96966.53;;;7.62;84.43
48041;BME280;33815;48.386;11.738;2023-05-17T07:24:26;96962.16;;;7.63;85.97
48041;BME280;33815;48.386;11.738;2023-05-17T07:26:51;96961.06;;;7.65;85.80
48041;BME280;33815;48.386;11.738;2023-05-17T07:29:16;96968.13;;;7.75;85.09
48041;BME280;33815;48.386;11.738;2023-05-17T07:31:42;96951.63;;;7.64;84.04
48041;BME280;33815;48.386;11.738;2023-05-17T07:34:07;96971.25;;;7.89;86.10
48041;BME280;33815;48.386;11.738;2023-05-17T07:36:32;96977.50;;;7.98;84.14
48041;BME280;33815;48.386;11.738;2023-05-17T07:38:58;96968.31;;;7.94;84.01
48041;BME280;33815;48.386;11.738;2023-05-17T07:41:23;96972.50;;;8.06;81.19
48041;BME280;33815;48.386;11.738;2023-05-17T07:43:48;96964.53;;;7.98;83.06
48041;BME280;33815;48.386;11.738;2023-05-17T07:46:15;96954.09;;;8.10;80.62
48041;BME280;33815;48.386;11.738;2023-05-17T07:48:40;96971.38;;;8.41;79.78
48041;BME280;33815;48.386;11.738;2023-05-17T07:51:05;96976.34;;;8.45;78.33
48041;BME280;33815;48.386;11.738;2023-05-17T07:53:31;96972.03;;;8.55;77.56
48041;BME280;33815;48.386;11.738;2023-05-17T07:55:57;96986.34;;;8.70;77.19
48041;BME280;33815;48.386;11.738;2023-05-17T07:58:22;96980.63;;;8.77;79.89
48041;BME280;33815;48.386;11.738;2023-05-17T08:00:47;96961.66;;;8.86;77.05
48041;BME280;33815;48.386;11.738;2023-05-17T08:03:13;96961.97;;;8.93;76.72
48041;BME280;33815;48.386;11.738;2023-05-17T08:05:38;96970.50;;;9.04;75.03
48041;BME280;33815;48.386;11.738;2023-05-17T08:08:04;96968.81;;;9.24;79.97
48041;BME280;33815;48.386;11.738;2023-05-17T08:10:29;96964.19;;;9.48;75.23
48041;BME280;33815;48.386;11.738;2023-05-17T08:12:54;96963.81;;;10.11;68.54
48041;BME280;33815;48.386;11.738;2023-05-17T08:15:20;96959.56;;;10.39;68.99
48041;BME280;33815;48.386;11.738;2023-05-17T08:17:45;96970.22;;;10.75;66.93
48041;BME280;33815;48.386;11.738;2023-05-17T08:20:11;96955.13;;;11.17;65.68
48041;BME280;33815;48.386;11.738;2023-05-17T08:22:36;96960.81;;;11.76;63.31
48041;BME280;33815;48.386;11.738;2023-05-17T08:25:02;96969.88;;;11.99;63.73
48041;BME280;33815;48.386;11.738;2023-05-17T08:27:28;96964.94;;;12.59;62.52
48041;BME280;33815;48.386;11.738;2023-05-17T08:29:55;96959.81;;;12.49;62.18
48041;BME280;33815;48.386;11.738;2023-05-17T08:32:22;96961.50;;;13.19;59.99
48041;BME280;33815;48.386;11.738;2023-05-17T08:34:47;96949.63;;;13.33;57.87
48041;BME280;33815;48.386;11.738;2023-05-17T08:37:13;96961.44;;;13.37;56.38
48041;BME280;33815;48.386;11.738;2023-05-17T08:39:38;96941.72;;;13.59;53.18
48041;BME280;33815;48.386;11.738;2023-05-17T08:42:06;96963.09;;;13.46;56.57
48041;BME280;33815;48.386;11.738;2023-05-17T08:44:32;96953.50;;;13.71;54.35
48041;BME280;33815;48.386;11.738;2023-05-17T08:46:58;96958.75;;;13.71;54.03
48041;BME280;33815;48.386;11.738;2023-05-17T08:49:26;96959.09;;;13.77;52.94
48041;BME280;33815;48.386;11.738;2023-05-17T08:51:53;96958.06;;;13.53;52.66
48041;BME280;33815;48.386;11.738;2023-05-17T08:54:19;96938.22;;;13.42;51.66
48041;BME280;33815;48.386;11.738;2023-05-17T08:56:46;96955.09;;;13.40;51.62
48041;BME280;33815;48.386;11.738;2023-05-17T08:59:16;96970.09;;;13.97;56.14
48041;BME280;33815;48.386;11.738;2023-05-17T09:01:44;96957.31;;;14.02;52.01
48041;BME280;33815;48.386;11.738;2023-05-17T09:04:12;96961.13;;;14.32;50.45
48041;BME280;33815;48.386;11.738;2023-05-17T09:06:37;96950.28;;;14.52;50.05
48041;BME280;33815;48.386;11.738;2023-05-17T09:09:03;96963.84;;;14.88;54.02
48041;BME280;33815;48.386;11.738;2023-05-17T09:11:31;96956.66;;;14.57;48.61
48041;BME280;33815;48.386;11.738;2023-05-17T09:14:02;96972.53;;;13.98;50.58
48041;BME280;33815;48.386;11.738;2023-05-17T09:16:32;96984.53;;;14.17;53.53
48041;BME280;33815;48.386;11.738;2023-05-17T09:19:00;96988.41;;;13.72;52.62
48041;BME280;33815;48.386;11.738;2023-05-17T09:21:26;96980.78;;;13.44;52.96
48041;BME280;33815;48.386;11.738;2023-05-17T09:23:53;96974.59;;;13.19;51.76
48041;BME280;33815;48.386;11.738;2023-05-17T09:26:20;96983.56;;;12.56;50.52
48041;BME280;33815;48.386;11.738;2023-05-17T09:28:46;96993.91;;;12.21;53.77
48041;BME280;33815;48.386;11.738;2023-05-17T09:31:14;97013.66;;;12.60;58.24
48041;BME280;33815;48.386;11.738;2023-05-17T09:33:48;96994.09;;;12.46;54.64
48041;BME280;33815;48.386;11.738;2023-05-17T09:36:19;97011.09;;;12.94;57.21
48041;BME280;33815;48.386;11.738;2023-05-17T09:38:58;97003.13;;;13.04;54.07
48041;BME280;33815;48.386;11.738;2023-05-17T09:41:29;97002.38;;;12.85;51.75
48041;BME280;33815;48.386;11.738;2023-05-17T09:44:02;97005.88;;;12.68;54.29
48041;BME280;33815;48.386;11.738;2023-05-17T09:46:34;97013.53;;;13.22;56.22
48041;BME280;33815;48.386;11.738;2023-05-17T09:49:01;97006.34;;;12.90;52.77
48041;BME280;33815;48.386;11.738;2023-05-17T09:51:31;97003.09;;;12.70;52.66
48041;BME280;33815;48.386;11.738;2023-05-17T09:53:57;96994.47;;;12.77;53.71
48041;BME280;33815;48.386;11.738;2023-05-17T09:56:26;96993.47;;;12.70;52.99
48041;BME280;33815;48.386;11.738;2023-05-17T09:58:52;96996.44;;;12.75;53.14
48041;BME280;33815;48.386;11.738;2023-05-17T10:01:17;97000.19;;;13.07;52.02
48041;BME280;33815;48.386;11.738;2023-05-17T10:03:43;97001.94;;;13.51;57.77
48041;BME280;33815;48.386;11.738;2023-05-17T10:06:08;96977.06;;;13.63;51.67
48041;BME280;33815;48.386;11.738;2023-05-17T10:08:37;96985.28;;;13.26;51.14
48041;BME280;33815;48.386;11.738;2023-05-17T10:11:09;96985.69;;;13.47;53.68
48041;BME280;33815;48.386;11.738;2023-05-17T10:13:38;96979.13;;;14.35;54.87
48041;BME280;33815;48.386;11.738;2023-05-17T10:16:04;96969.78;;;14.16;47.76
48041;BME280;33815;48.386;11.738;2023-05-17T10:18:30;96957.63;;;13.82;47.91
48041;BME280;33815;48.386;11.738;2023-05-17T10:20:56;96949.56;;;13.51;45.40
48041;BME280;33815;48.386;11.738;2023-05-17T10:23:23;96962.34;;;13.62;47.56
48041;BME280;33815;48.386;11.738;2023-05-17T10:25:49;96968.13;;;13.99;51.47
48041;BME280;33815;48.386;11.738;2023-05-17T10:28:16;96950.75;;;14.47;47.08
48041;BME280;33815;48.386;11.738;2023-05-17T10:30:42;96941.09;;;13.98;42.58
48041;BME280;33815;48.386;11.738;2023-05-17T10:33:09;96946.19;;;13.83;46.27
48041;BME280;33815;48.386;11.738;2023-05-17T10:35:37;96950.63;;;14.24;46.18
48041;BME280;33815;48.386;11.738;2023-05-17T10:38:02;96961.06;;;14.57;46.60
48041;BME280;33815;48.386;11.738;2023-05-17T10:40:29;96942.09;;;14.71;44.49
48041;BME280;33815;48.386;11.738;2023-05-17T10:42:56;96935.38;;;14.69;41.64
48041;BME280;33815;48.386;11.738;2023-05-17T10:45:24;96939.78;;;14.52;41.95
48041;BME280;33815;48.386;11.738;2023-05-17T10:47:50;96925.56;;;14.38;42.12
48041;BME280;33815;48.386;11.738;2023-05-17T10:50:21;96938.78;;;14.86;42.29
48041;BME280;33815;48.386;11.738;2023-05-17T10:52:48;96941.75;;;14.66;42.73
48041;BME280;33815;48.386;11.738;2023-05-17T10:55:20;96926.81;;;14.75;41.02
48041;BME280;33815;48.386;11.738;2023-05-17T10:58:18;96933.53;;;14.78;40.89
48041;BME280;33815;48.386;11.738;2023-05-17T11:00:48;96939.09;;;14.83;41.37
48041;BME280;33815;48.386;11.738;2023-05-17T11:03:20;96931.81;;;15.41;44.77
48041;BME280;33815;48.386;11.738;2023-05-17T11:08:36;96932.41;;;15.51;41.88
48041;BME280;33815;48.386;11.738;2023-05-17T11:13:49;96931.91;;;15.87;44.28
48041;BME280;33815;48.386;11.738;2023-05-17T11:16:16;96907.59;;;15.31;41.89
48041;BME280;33815;48.386;11.738;2023-05-17T11:18:46;96910.94;;;15.48;39.76
48041;BME280;33815;48.386;11.738;2023-05-17T11:21:14;96915.66;;;15.52;42.72
48041;BME280;33815;48.386;11.738;2023-05-17T11:23:41;96913.75;;;16.01;43.36
48041;BME280;33815;48.386;11.738;2023-05-17T11:26:14;96910.66;;;15.34;40.94
48041;BME280;33815;48.386;11.738;2023-05-17T11:28:40;96905.25;;;15.36;42.05
48041;BME280;33815;48.386;11.738;2023-05-17T11:31:05;96902.13;;;15.01;43.01
48041;BME280;33815;48.386;11.738;2023-05-17T11:33:43;96912.28;;;15.12;42.48
48041;BME280;33815;48.386;11.738;2023-05-17T11:36:27;96917.03;;;15.40;45.74
48041;BME280;33815;48.386;11.738;2023-05-17T11:39:19;96922.44;;;15.15;42.53
48041;BME280;33815;48.386;11.738;2023-05-17T11:41:50;96916.59;;;15.36;44.67
48041;BME280;33815;48.386;11.738;2023-05-17T11:44:22;96904.22;;;15.45;44.00
48041;BME280;33815;48.386;11.738;2023-05-17T11:46:49;96915.19;;;15.80;44.13
48041;BME280;33815;48.386;11.738;2023-05-17T11:49:15;96900.28;;;15.41;42.39
48041;BME280;33815;48.386;11.738;2023-05-17T11:51:41;96909.78;;;15.50;42.95
48041;BME280;33815;48.386;11.738;2023-05-17T11:54:08;96925.75;;;15.01;45.57
48041;BME280;33815;48.386;11.738;2023-05-17T11:56:35;96930.13;;;14.69;48.32
48041;BME280;33815;48.386;11.738;2023-05-17T11:59:01;96939.44;;;15.28;48.62
48041;BME280;33815;48.386;11.738;2023-05-17T12:01:27;96926.16;;;15.52;44.69
48041;BME280;33815;48.386;11.738;2023-05-17T12:03:55;96921.75;;;15.84;42.59
48041;BME280;33815;48.386;11.738;2023-05-17T12:06:23;96918.06;;;15.93;43.08
48041;BME280;33815;48.386;11.738;2023-05-17T12:08:49;96936.31;;;16.33;45.30
48041;BME280;33815;48.386;11.738;2023-05-17T12:11:15;96930.91;;;16.50;45.14
48041;BME280;33815;48.386;11.738;2023-05-17T12:13:42;96914.84;;;15.52;44.38
48041;BME280;33815;48.386;11.738;2023-05-17T12:16:14;96921.22;;;14.78;44.27
48041;BME280;33815;48.386;11.738;2023-05-17T12:18:42;96923.66;;;14.88;49.79
48041;BME280;33815;48.386;11.738;2023-05-17T12:21:11;96925.19;;;15.76;48.43
48041;BME280;33815;48.386;11.738;2023-05-17T12:23:42;96933.00;;;16.54;46.97
48041;BME280;33815;48.386;11.738;2023-05-17T12:26:11;96927.88;;;16.23;44.87
48041;BME280;33815;48.386;11.738;2023-05-17T12:28:39;96923.47;;;15.69;44.24
48041;BME280;33815;48.386;11.738;2023-05-17T12:31:16;96940.91;;;14.74;45.96
48041;BME280;33815;48.386;11.738;2023-05-17T12:33:42;96934.56;;;15.48;45.48
48041;BME280;33815;48.386;11.738;2023-05-17T12:36:10;96915.22;;;15.72;44.99
48041;BME280;33815;48.386;11.738;2023-05-17T12:38:38;96933.16;;;16.38;45.73
48041;BME280;33815;48.386;11.738;2023-05-17T12:41:05;96924.13;;;17.30;46.76
48041;BME280;33815;48.386;11.738;2023-05-17T12:43:36;96926.69;;;17.23;41.92
48041;BME280;33815;48.386;11.738;2023-05-17T12:46:08;96935.50;;;17.01;42.56
48041;BME280;33815;48.386;11.738;2023-05-17T12:48:36;96933.66;;;15.95;42.89
48041;BME280;33815;48.386;11.738;2023-05-17T12:51:05;96939.94;;;15.63;47.14
48041;BME280;33815;48.386;11.738;2023-05-17T12:53:48;96915.13;;;15.34;46.88
48041;BME280;33815;48.386;11.738;2023-05-17T12:56:16;96938.50;;;15.83;46.06
48041;BME280;33815;48.386;11.738;2023-05-17T12:58:43;96930.31;;;15.07;46.08